createdAt,value
2022-12-28T00:04:25.167Z,978.9
2022-12-28T00:09:57.557Z,979.28
2022-12-28T00:15:28.454Z,979.56
2022-12-28T00:21:00.366Z,979.31
2022-12-28T00:26:32.338Z,979.34
2022-12-28T00:32:03.919Z,979.09
2022-12-28T00:37:35.464Z,979.31
2022-12-28T00:43:13.379Z,979.57
2022-12-28T00:48:45.449Z,979.65
2022-12-28T00:54:17.004Z,979.48
2022-12-28T00:59:48.781Z,979.72
2022-12-28T01:05:20.455Z,979.54
2022-12-28T01:10:52.257Z,979.98
2022-12-28T01:16:24.104Z,979.1
2022-12-28T01:21:55.859Z,978.89
2022-12-28T01:27:27.411Z,979.11
2022-12-28T01:32:58.824Z,979.26
2022-12-28T01:38:30.755Z,979.0
2022-12-28T01:44:06.993Z,979.01
2022-12-28T01:49:38.852Z,979.48
2022-12-28T01:55:10.670Z,979.02
2022-12-28T02:00:42.558Z,978.92
2022-12-28T02:06:13.913Z,978.95
2022-12-28T02:11:45.526Z,979.03
2022-12-28T02:17:17.120Z,979.02
2022-12-28T02:22:48.832Z,979.08
2022-12-28T02:28:20.687Z,979.52
2022-12-28T02:33:52.209Z,979.4
2022-12-28T02:39:24.046Z,979.99
2022-12-28T02:45:02.228Z,979.65
2022-12-28T02:50:33.979Z,979.56
2022-12-28T02:56:05.652Z,979.45
2022-12-28T03:01:37.505Z,979.53
2022-12-28T03:07:09.059Z,979.34
2022-12-28T03:12:40.643Z,979.41
2022-12-28T03:18:12.500Z,979.6
2022-12-28T03:23:44.024Z,979.53
2022-12-28T03:29:15.944Z,979.44
2022-12-28T03:34:47.444Z,979.32
2022-12-28T03:40:19.197Z,979.23
2022-12-28T03:45:55.759Z,979.24
2022-12-28T03:51:27.120Z,979.69
2022-12-28T03:56:58.841Z,979.45
2022-12-28T04:02:30.775Z,979.05
2022-12-28T04:08:02.482Z,978.92
2022-12-28T04:13:34.025Z,978.52
2022-12-28T04:19:05.882Z,978.62
2022-12-28T04:24:37.685Z,978.38
2022-12-28T04:30:09.292Z,977.8
2022-12-28T04:35:41.149Z,977.88
2022-12-28T04:41:12.885Z,978.03
2022-12-28T04:46:49.089Z,978.1
2022-12-28T04:52:20.890Z,978.24
2022-12-28T04:57:52.309Z,978.25
2022-12-28T05:03:24.288Z,978.18
2022-12-28T05:08:55.714Z,978.19
2022-12-28T05:14:37.537Z,978.61
2022-12-28T05:19:59.205Z,978.52
2022-12-28T05:25:30.827Z,978.35
2022-12-28T05:31:02.785Z,978.67
2022-12-28T05:36:34.574Z,978.91
2022-12-28T05:42:05.831Z,978.98
2022-12-28T05:47:41.906Z,978.66
2022-12-28T05:53:13.848Z,978.93
2022-12-28T05:58:45.542Z,979.06
2022-12-28T06:04:17.251Z,978.94
2022-12-28T06:09:48.857Z,978.6
2022-12-28T06:15:20.703Z,978.78
2022-12-28T06:20:57.800Z,978.9
2022-12-28T06:26:24.413Z,978.85
2022-12-28T06:31:56.202Z,978.77
2022-12-28T06:37:28.162Z,978.91
2022-12-28T06:42:59.154Z,978.88
2022-12-28T06:48:37.665Z,978.86
2022-12-28T06:54:09.817Z,979.05
2022-12-28T06:59:41.282Z,978.44
2022-12-28T07:05:12.727Z,978.45
2022-12-28T07:10:44.530Z,978.56
2022-12-28T07:16:16.404Z,978.61
2022-12-28T07:21:47.783Z,978.44
2022-12-28T07:27:19.633Z,978.55
2022-12-28T07:32:51.403Z,978.29
2022-12-28T07:38:22.932Z,978.48
2022-12-28T07:43:54.759Z,978.39
2022-12-28T07:49:30.838Z,978.55
2022-12-28T07:55:02.456Z,978.31
2022-12-28T08:00:34.150Z,978.2
2022-12-28T08:06:05.846Z,978.32
2022-12-28T08:11:37.466Z,977.88
2022-12-28T08:17:09.336Z,978.61
2022-12-28T08:22:41.288Z,978.5
2022-12-28T08:28:13.205Z,978.36
2022-12-28T08:33:44.391Z,978.63
2022-12-28T08:39:16.598Z,978.91
2022-12-28T08:44:48.128Z,978.81
2022-12-28T08:50:32.536Z,979.11
2022-12-28T08:56:06.162Z,979.06
2022-12-28T09:01:28.612Z,979.06
2022-12-28T09:06:59.735Z,978.92
2022-12-28T09:12:31.424Z,979.11
2022-12-28T09:18:03.356Z,979.41
2022-12-28T09:23:35.336Z,979.53
2022-12-28T09:29:06.812Z,979.43
2022-12-28T09:34:39.318Z,979.45
2022-12-28T09:40:10.379Z,979.58
2022-12-28T09:45:42.378Z,979.72
2022-12-28T09:51:18.331Z,979.87
2022-12-28T09:56:50.292Z,980.14
2022-12-28T10:02:21.602Z,980.01
2022-12-28T10:07:53.375Z,979.83
2022-12-28T10:13:56.648Z,980.03
2022-12-28T10:18:56.951Z,979.55
2022-12-28T10:24:33.772Z,979.64
2022-12-28T10:29:59.935Z,979.59
2022-12-28T10:35:31.745Z,979.48
2022-12-28T10:41:03.401Z,979.13
2022-12-28T10:46:36.787Z,979.32
2022-12-28T10:52:13.552Z,979.42
2022-12-28T10:58:32.031Z,979.52
2022-12-28T11:03:18.776Z,979.52
2022-12-28T11:08:48.343Z,979.65
2022-12-28T11:14:20.195Z,979.38
2022-12-28T11:19:52.114Z,979.44
2022-12-28T11:25:23.707Z,979.31
2022-12-28T11:30:55.666Z,979.39
2022-12-28T11:36:26.981Z,979.37
2022-12-28T11:42:40.613Z,979.2
2022-12-28T11:47:30.985Z,978.91
2022-12-28T11:53:14.756Z,978.84
2022-12-28T11:58:40.703Z,978.62
2022-12-28T12:04:12.559Z,978.37
2022-12-28T12:09:44.326Z,978.41
2022-12-28T12:15:16.156Z,978.83
2022-12-28T12:20:47.521Z,978.63
2022-12-28T12:26:19.252Z,978.29
2022-12-28T12:31:51.136Z,978.36
2022-12-28T12:37:22.800Z,978.11
2022-12-28T12:42:54.541Z,978.12
2022-12-28T12:48:25.964Z,978.08
2022-12-28T12:54:04.068Z,978.03
2022-12-28T12:59:36.109Z,977.41
2022-12-28T13:05:07.520Z,977.4
2022-12-28T13:10:39.440Z,977.29
2022-12-28T13:16:11.284Z,977.38
2022-12-28T13:21:42.720Z,977.35
2022-12-28T13:27:14.649Z,977.05
2022-12-28T13:32:46.170Z,977.0
2022-12-28T13:38:17.793Z,976.61
2022-12-28T13:43:49.489Z,976.96
2022-12-28T13:49:21.454Z,976.6
2022-12-28T13:54:57.725Z,976.56
2022-12-28T14:00:29.306Z,976.67
2022-12-28T14:06:01.414Z,976.64
2022-12-28T14:11:32.918Z,976.62
2022-12-28T14:17:04.383Z,976.69
2022-12-28T14:22:37.226Z,976.37
2022-12-28T14:28:08.141Z,976.02
2022-12-28T14:33:39.569Z,976.09
2022-12-28T14:39:11.481Z,975.74
2022-12-28T14:44:43.002Z,975.93
2022-12-28T14:50:14.977Z,975.25
2022-12-28T14:55:50.920Z,975.58
2022-12-28T15:01:23.372Z,975.55
2022-12-28T15:06:54.618Z,975.35
2022-12-28T15:12:26.030Z,975.39
2022-12-28T15:17:57.763Z,975.3
2022-12-28T15:23:29.597Z,975.09
2022-12-28T15:29:01.041Z,975.32
2022-12-28T15:34:33.043Z,975.16
2022-12-28T15:40:04.584Z,974.84
2022-12-28T15:45:36.962Z,974.99
2022-12-28T15:51:07.825Z,974.91
2022-12-28T15:56:46.029Z,974.69
2022-12-28T16:02:18.278Z,974.4
2022-12-28T16:07:49.498Z,974.56
2022-12-28T16:13:21.189Z,974.5
2022-12-28T16:18:53.785Z,973.98
2022-12-28T16:24:24.925Z,974.08
2022-12-28T16:29:59.854Z,974.09
2022-12-28T16:35:28.206Z,973.98
2022-12-28T16:41:00.097Z,973.7
2022-12-28T16:46:31.748Z,974.15
2022-12-28T16:52:03.448Z,973.71
2022-12-28T16:57:42.366Z,973.42
2022-12-28T17:03:13.615Z,973.43
2022-12-28T17:08:51.950Z,973.81
2022-12-28T17:14:38.753Z,973.75
2022-12-28T17:19:55.649Z,973.66
2022-12-28T17:25:27.309Z,973.46
2022-12-28T17:30:58.901Z,973.74
2022-12-28T17:36:30.570Z,973.61
2022-12-28T17:42:02.140Z,973.21
2022-12-28T17:47:34.256Z,973.28
2022-12-28T17:53:05.828Z,972.96
2022-12-28T17:58:41.842Z,973.05
2022-12-28T18:04:13.511Z,972.77
2022-12-28T18:09:45.225Z,972.27
2022-12-28T18:15:16.901Z,972.55
2022-12-28T18:20:48.573Z,972.53
2022-12-28T18:26:20.521Z,972.64
2022-12-28T18:31:52.009Z,972.42
2022-12-28T18:37:23.923Z,972.08
2022-12-28T18:42:55.644Z,972.24
2022-12-28T18:48:27.019Z,972.06
2022-12-28T18:53:58.716Z,972.05
2022-12-28T18:59:36.860Z,971.85
2022-12-28T19:05:08.842Z,972.11
2022-12-28T19:10:40.462Z,971.83
2022-12-28T19:16:12.401Z,971.99
2022-12-28T19:21:43.973Z,971.77
2022-12-28T19:27:15.668Z,971.47
2022-12-28T19:32:47.281Z,970.68
2022-12-28T19:38:19.039Z,970.53
2022-12-28T19:43:50.985Z,970.73
2022-12-28T19:49:22.856Z,970.93
2022-12-28T19:54:54.271Z,970.78
2022-12-28T20:00:33.573Z,971.16
2022-12-28T20:06:04.441Z,970.96
2022-12-28T20:11:35.715Z,970.89
2022-12-28T20:17:07.569Z,970.99
2022-12-28T20:22:39.755Z,970.51
2022-12-28T20:28:11.042Z,970.58
2022-12-28T20:33:42.980Z,970.48
2022-12-28T20:39:14.469Z,970.55
2022-12-28T20:44:45.988Z,970.5
2022-12-28T20:50:18.025Z,970.41
2022-12-28T20:55:49.503Z,970.66
2022-12-28T21:01:26.423Z,970.22
2022-12-28T21:06:58.207Z,970.5
2022-12-28T21:12:29.539Z,970.1
2022-12-28T21:18:01.450Z,970.15
2022-12-28T21:23:32.722Z,970.01
2022-12-28T21:29:04.352Z,970.13
2022-12-28T21:34:36.147Z,969.98
2022-12-28T21:40:08.408Z,970.15
2022-12-28T21:45:39.599Z,970.02
2022-12-28T21:51:12.164Z,970.05
2022-12-28T21:56:43.327Z,970.07
2022-12-28T22:02:19.797Z,970.23
2022-12-28T22:07:50.974Z,970.13
2022-12-28T22:13:22.607Z,970.38
2022-12-28T22:19:04.586Z,970.19
2022-12-28T22:24:25.777Z,970.65
2022-12-28T22:29:57.915Z,970.78
2022-12-28T22:35:29.456Z,970.7
2022-12-28T22:41:01.264Z,971.12
2022-12-28T22:46:32.875Z,971.1
2022-12-28T22:52:04.522Z,971.09
2022-12-28T22:57:36.248Z,971.25
2022-12-28T23:03:12.671Z,971.3
2022-12-28T23:08:43.968Z,971.47
2022-12-28T23:14:15.762Z,971.34
2022-12-28T23:19:47.403Z,971.53
2022-12-28T23:25:19.357Z,971.27
2022-12-28T23:30:51.077Z,971.59
2022-12-28T23:36:22.690Z,971.65
2022-12-28T23:41:55.044Z,971.59
2022-12-28T23:47:26.178Z,971.49
2022-12-28T23:52:57.789Z,971.48
2022-12-28T23:58:29.828Z,971.56
